AirNav   Air Wisconsin pilot careers
 
 956 users online  

KAIV George Downer Airport
Aliceville, Alabama, USA


FAA INFORMATION EFFECTIVE 04 JANUARY 2018

Location

FAA Identifier: AIV
Lat/Long: 33-06-24.2800N / 088-11-49.8300W
33-06.404667N / 088-11.830500W
33.1067444 / -88.1971750
(estimated)
Elevation: 150 ft. / 45.7 m (surveyed)
Variation: 02W (2015)
From city: 2 miles SW of ALICEVILLE, AL
Time zone: UTC -6 (UTC -5 during Daylight Saving Time)
Zip code: 35442

Airport Operations

Airport use: Open to the public
Activation date: 10/1961
Control tower: no
ARTCC: MEMPHIS CENTER
FSS: ANNISTON FLIGHT SERVICE STATION
NOTAMs facility: ANB (NOTAM-D service available)
Attendance: UNATNDD
Wind indicator: lighted
Segmented circle: no
Lights: ACTVT MIRL & REILS RY 06/24 - CTAF.
Beacon: white-green (lighted land airport)
Operates sunset to sunrise.

Airport Communications

CTAF/UNICOM: 122.8
MEMPHIS ARTCC APPROACH: 135.6
MEMPHIS ARTCC DEPARTURE: 135.6
  • APCH/DEP SERVICE PROVIDED BY MEMPHIS ARTCC ON FREQS 127.1/269.4 (COLUMBUS RCAG) WHEN COLUMBUS APCH CTL CLOSED.

Nearby radio navigation aids

VOR radial/distance  VOR name  Freq  Var
IGBr141/27.7BIGBEE VORTAC116.2004E
CBMr159/34.3CALEDONIA VORTAC115.2000E
LDKr252/34.4CRIMSON VORTAC117.8003E

Airport Services

Fuel available: 100LL
Parking: tiedowns
Airframe service: NONE
Powerplant service: NONE
Bottled oxygen: NONE
Bulk oxygen: NONE

Runway Information

Runway 6/24

Dimensions: 5001 x 80 ft. / 1524 x 24 m
Surface: asphalt, in good condition
Runway edge lights: medium intensity
RUNWAY 6  RUNWAY 24
Latitude: 33-06.208833N33-06.600500N
Longitude: 088-12.261667W088-11.399333W
Elevation: 142.8 ft.149.8 ft.
Traffic pattern: leftleft
Runway heading: 064 magnetic, 062 true244 magnetic, 242 true
Markings: nonprecision, in good conditionnonprecision, in good condition
Runway end identifier lights: yesyes
Touchdown point: yes, no lightsyes, no lights

Airport Ownership and Management from official FAA records

Ownership: Publicly-owned
Owner: CITY OF ALICEVILLE
215 FIRST ST NE
ALICEVILLE, AL 35442
Phone 205-373-6611
ALTERNATE PHONE NUMBER 205-315-1057.
Manager: CITY OF ALICEVILLE
11135 HWY 17
ALICEVILLE, AL 35442
Phone 205-373-0446

Airport Operational Statistics

Aircraft based on the field: 6
Single engine airplanes: 6
    
Aircraft operations: avg 103/week *
100% transient general aviation
* for 12-month period ending 18 October 2016

Additional Remarks

TWY LGTS FOR TWY TURNOFF ONLY.

Instrument Procedures

NOTE: All procedures below are presented as PDF files. If you need a reader for these files, you should download the free Adobe Reader.

NOT FOR NAVIGATION. Please procure official charts for flight.
FAA instrument procedures published for use between 4 January 2018 at 0901Z and 1 February 2018 at 0900Z.

 
IAPs - Instrument Approach Procedures
RNAV (GPS) RWY 06   download (180KB)
RNAV (GPS) RWY 24   download (179KB)
NOTE: Special Take-Off Minimums/Departure Procedures apply   download (250KB)

Other nearby airports with instrument procedures:

3M8 - North Pickens Airport (19 nm NE)
KUBS - Columbus-Lowndes County Airport (23 nm NW)
KGTR - Golden Triangle Regional Airport (28 nm NW)
KTCL - Tuscaloosa Regional Airport (30 nm E)
M51 - Oktibbeha Airport (34 nm NW)
 
Loc | Ops | Rwys | IFR | FBO | Links
Com | Nav | Svcs | Stats | Notes


 
Area around KAIV (George Downer Airport)
 
Road maps at: MapQuest Bing Google
 
Aerial photo
WARNING: Photo may not be current or correct
Aerial photo of KAIV (George Downer Airport)
Do you have a better or more recent aerial photo of George Downer Airport that you would like to share? If so, please send us your photo.

 
Sectional chart

 
Airport distance calculator
Flying to George Downer Airport? Find the distance to fly.

From to KAIV

Sunrise and sunset
Times for 22-Jan-2018
 Local
(UTC-6)
 Zulu
(UTC)
Morning civil twilight06:2812:28
Sunrise06:5512:55
Sunset17:1423:14
Evening civil twilight17:4123:41

Current date and time
Zulu (UTC)  23-Jan-2018 01:02:20
Local (UTC-6)  22-Jan-2018 19:02:20
 
METAR
KGTR 
28nm NW 
230056Z 25005KT 10SM CLR 14/01 A2989 RMK AO2 SLP121 T01440011
KTCL 
30nm E 
230053Z 21006KT 10SM CLR 15/12 A2988 RMK AO2 SLP115 T01500117
KCBM 
34nm N 
230056Z AUTO 24006KT 10SM CLR 12/02 A2987 RMK AO2 SLP118 T01240023 $
KSTF 
38nm NW 
230035Z AUTO 26006KT 10SM CLR 15/M01 A2987 RMK AO2
KNMM 
39nm SW 
230056Z 24004KT 10SM CLR 15/06 A2991 RMK AO2 SLP137 T01500061
KDYA 
40nm S 
230055Z AUTO 19005KT 10SM 17/14 A2989 RMK AO2 T01670135
KM40 
48nm N 
230055Z AUTO 25009G17KT 10SM 15/05 A2988 RMK AO2
TAF
KGTR 
28nm NW 
221925Z 2219/2318 23012G17KT P6SM VCSH BKN015 OVC070 FM222100 21011G17KT P6SM OVC070 FM222200 24006G18KT P6SM FEW250 FM231200 27006KT P6SM BKN250 FM231500 30010G16KT P6SM SKC
KTCL 
30nm E 
222005Z 2220/2318 17012KT P6SM OVC015 FM230400 25006KT P6SM SKC FM231500 28012G17KT P6SM SKC
KCBM 
34nm N 
221940Z 2219/2323 18009KT 9999 BKN012 OVC020 QNH2980INS BECMG 2220/2221 22009KT 9999 FEW020 QNH2980INS BECMG 2314/2315 28010G15KT 9999 SKC QNH3010INS TX20/2220Z TN02/2311Z
NOTAMs
Click for the latest NOTAMs
NOTAMs are issued by the DoD/FAA and will open in a separate window not controlled by AirNav.

 

 
 

FBO, Fuel Providers, and Aircraft Ground Support

  
 Business Name 
 
 Contact 
 
 Services / Description 
 
Fuel Prices
 
Comments
  
City of Aliceville 205-373-6611
no information available

If you are affiliated with City of Aliceville and would like to show here your services, contact info, web link, logo, and more, click here
100LL
SS $4.25 
 Updated 06-Sep-2016
 
   write
SS=Self service
Update Fuel Prices
 

Would you like to see your business listed on this page?

 If your business provides an interesting product or service to pilots, flight crews, aircraft, or users of the George Downer Airport, you should consider listing it here.  To start the listing process, click on the button below
 
Add a business
 

Other Pages about George Downer Airport

Update a link
 
Copyright © AirNav, LLC. All rights reserved. Privacy Policy  Contact